Time;durP1;ratioP1;P1;durP2;ratioP2;P2;SDS_P1;SDS_P2;PMS_P1;PMS_P2;Temp;Humidity;BMP_temperature;BMP_pressure;BME280_temperature;BME280_humidity;BME280_pressure;Samples;Min_cycle;Max_cycle;Signal;HPM_P1;HPM_P2
2023/09/20 00:00:15;;;;;;;;;;;;;;;;;;4132293;28;20038;-65
2023/09/20 00:02:16;;;;;;;3.75;1.38;;;;;;;;;;4131771;28;20309;-65
2023/09/20 00:04:18;;;;;;;1.33;1.10;;;;;;;;;;4131308;28;20395;-65
2023/09/20 00:06:20;;;;;;;1.48;1.48;;;;;;;;;;4131587;28;20292;-65
2023/09/20 00:08:21;;;;;;;1.40;1.40;;;;;;;;;;4131630;28;20038;-65
2023/09/20 00:10:23;;;;;;;2.45;1.42;;;;;;;;;;4131258;28;20046;-65
2023/09/20 00:12:25;;;;;;;1.87;1.80;;;;;;;;;;4131639;28;20038;-65
2023/09/20 00:14:29;;;;;;;1.40;1.40;;;;;;;;;;4131558;28;20781;-65
2023/09/20 00:16:31;;;;;;;1.48;1.40;;;;;;;;;;4131487;28;20665;-65
2023/09/20 00:18:32;;;;;;;1.40;1.40;;;;;;;;;;4131530;28;20121;-65
2023/09/20 00:20:35;;;;;;;4.13;1.43;;;;;;;;;;4131404;28;20513;-65
2023/09/20 00:22:37;;;;;;;;;;;;;;;;;;4131933;28;20125;-64
2023/09/20 00:24:38;;;;;;;1.58;1.48;;;;;;;;;;4124425;28;19981;-65
2023/09/20 00:26:40;;;;;;;6.78;1.80;;;;;;;;;;4115240;28;20082;-65
2023/09/20 00:28:43;;;;;;;1.67;1.58;;;;;;;;;;4122859;28;20140;-65
2023/09/20 00:30:45;;;;;;;1.63;1.33;;;;;;;;;;4131464;28;20481;-65
2023/09/20 00:32:47;;;;;;;3.58;1.25;;;;;;;;;;4131310;28;20521;-65
2023/09/20 00:34:50;;;;;;;1.73;1.63;;;;;;;;;;4131389;28;20115;-65
2023/09/20 00:36:52;;;;;;;1.90;1.80;;;;;;;;;;4131285;28;20121;-65
2023/09/20 00:38:57;;;;;;;2.43;1.50;;;;;;;;;;4131227;28;20039;-65
2023/09/20 00:40:58;;;;;;;3.47;1.92;;;;;;;;;;4131273;28;20050;-65
2023/09/20 00:43:00;;;;;;;1.40;1.40;;;;;;;;;;4131402;28;20038;-65
2023/09/20 00:45:03;;;;;;;1.75;1.55;;;;;;;;;;4131097;28;20034;-65
2023/09/20 00:47:05;;;;;;;4.70;1.55;;;;;;;;;;4131086;28;20108;-65
2023/09/20 00:49:07;;;;;;;2.55;1.50;;;;;;;;;;4131323;28;20517;-65
2023/09/20 00:51:09;;;;;;;1.67;1.58;;;;;;;;;;4131443;28;20061;-65
2023/09/20 00:53:13;;;;;;;2.15;1.75;;;;;;;;;;4132597;28;20410;-65
2023/09/20 00:55:20;;;;;;;3.15;2.00;;;;;;;;;;4134258;28;20057;-65
2023/09/20 00:57:22;;;;;;;1.42;1.30;;;;;;;;;;4134422;28;20047;-65
2023/09/20 00:59:24;;;;;;;1.88;1.40;;;;;;;;;;4133586;28;20415;-65
2023/09/20 01:01:26;;;;;;;1.85;1.75;;;;;;;;;;4134394;28;20042;-65
2023/09/20 01:03:31;;;;;;;1.33;1.23;;;;;;;;;;4133893;28;20049;-65
2023/09/20 01:05:39;;;;;;;1.92;1.40;;;;;;;;;;4134133;28;20042;-65
2023/09/20 01:07:42;;;;;;;3.40;1.45;;;;;;;;;;4134270;28;20066;-64
2023/09/20 01:09:45;;;;;;;1.70;1.60;;;;;;;;;;4134195;28;20107;-65
2023/09/20 01:11:47;;;;;;;2.63;1.60;;;;;;;;;;4134280;28;20046;-65
2023/09/20 01:13:48;;;;;;;1.60;1.47;;;;;;;;;;4134059;28;20077;-65
2023/09/20 01:15:50;;;;;;;2.03;1.95;;;;;;;;;;4133971;28;20773;-65
2023/09/20 01:17:57;;;;;;;1.60;1.30;;;;;;;;;;4132927;28;20501;-65
2023/09/20 01:20:01;;;;;;;1.60;1.50;;;;;;;;;;4118245;28;20567;-65
2023/09/20 01:22:02;;;;;;;1.67;1.58;;;;;;;;;;4118020;28;20046;-65
2023/09/20 01:24:04;;;;;;;1.60;1.57;;;;;;;;;;4118152;28;20558;-64
2023/09/20 01:26:06;;;;;;;2.33;2.22;;;;;;;;;;4117988;28;20174;-65
2023/09/20 01:28:08;;;;;;;1.92;1.60;;;;;;;;;;4120656;28;20078;-65
2023/09/20 01:30:11;;;;;;;1.52;1.50;;;;;;;;;;4133905;28;20068;-65
2023/09/20 01:32:14;;;;;;;1.73;1.63;;;;;;;;;;4133814;28;20053;-65
2023/09/20 01:34:15;;;;;;;2.20;1.30;;;;;;;;;;4133903;28;20486;-65
2023/09/20 01:36:17;;;;;;;1.30;1.20;;;;;;;;;;4133921;28;20074;-65
2023/09/20 01:38:18;;;;;;;1.40;1.40;;;;;;;;;;4133810;28;20050;-65
2023/09/20 01:40:23;;;;;;;1.20;1.10;;;;;;;;;;4133509;28;20117;-65
2023/09/20 01:42:25;;;;;;;1.20;1.20;;;;;;;;;;4133801;28;20297;-64
2023/09/20 01:44:27;;;;;;;1.65;1.27;;;;;;;;;;4133669;28;20050;-65
2023/09/20 01:46:29;;;;;;;1.65;1.63;;;;;;;;;;4133648;28;20056;-65
2023/09/20 01:48:31;;;;;;;1.85;1.20;;;;;;;;;;4133713;28;20052;-65
2023/09/20 01:50:33;;;;;;;1.60;1.33;;;;;;;;;;4133646;28;20049;-65
2023/09/20 01:52:36;;;;;;;1.20;1.20;;;;;;;;;;4133710;28;20044;-65
2023/09/20 01:54:38;;;;;;;2.40;1.50;;;;;;;;;;4133517;28;20070;-65
2023/09/20 01:56:40;;;;;;;1.47;1.37;;;;;;;;;;4133768;28;20054;-65
2023/09/20 01:58:44;;;;;;;1.40;1.40;;;;;;;;;;4133557;28;20332;-65
2023/09/20 02:00:50;;;;;;;1.70;1.45;;;;;;;;;;4133465;28;20042;-65
2023/09/20 02:02:56;;;;;;;2.83;1.58;;;;;;;;;;4133452;28;20046;-65
2023/09/20 02:04:59;;;;;;;1.50;1.42;;;;;;;;;;4132645;28;20050;-65
2023/09/20 02:07:02;;;;;;;1.67;1.20;;;;;;;;;;4133393;28;20064;-65
2023/09/20 02:09:04;;;;;;;1.30;1.30;;;;;;;;;;4133581;28;20101;-65
2023/09/20 02:11:06;;;;;;;4.22;1.90;;;;;;;;;;4133387;28;20046;-65
2023/09/20 02:13:08;;;;;;;1.20;1.13;;;;;;;;;;4133215;28;20052;-65
2023/09/20 02:15:11;;;;;;;2.77;1.57;;;;;;;;;;4133224;28;20050;-65
2023/09/20 02:17:12;;;;;;;1.42;1.42;;;;;;;;;;4125488;28;20049;-65
2023/09/20 02:19:14;;;;;;;2.87;1.30;;;;;;;;;;4117061;28;20042;-65
2023/09/20 02:21:16;;;;;;;8.43;1.50;;;;;;;;;;4117311;28;20046;-65
2023/09/20 02:23:17;;;;;;;1.98;1.20;;;;;;;;;;4117052;28;20220;-65
2023/09/20 02:25:22;;;;;;;1.13;1.10;;;;;;;;;;4117272;28;20038;-65
2023/09/20 02:27:24;;;;;;;2.10;1.30;;;;;;;;;;4116895;28;20074;-65
2023/09/20 02:29:25;;;;;;;1.20;1.20;;;;;;;;;;4130088;28;20391;-65
2023/09/20 02:31:27;;;;;;;4.90;1.30;;;;;;;;;;4133025;28;20766;-65
2023/09/20 02:33:30;;;;;;;1.77;1.60;;;;;;;;;;4133027;28;20278;-65
2023/09/20 02:35:32;;;;;;;2.08;1.20;;;;;;;;;;4131661;28;20051;-65
2023/09/20 02:37:34;;;;;;;1.83;1.20;;;;;;;;;;4117062;28;20061;-65
2023/09/20 02:39:36;;;;;;;2.15;1.63;;;;;;;;;;4116601;28;20043;-65
2023/09/20 02:41:37;;;;;;;1.53;1.53;;;;;;;;;;4116871;28;20039;-65
2023/09/20 02:43:39;;;;;;;5.63;1.30;;;;;;;;;;4116761;28;20297;-65
2023/09/20 02:45:45;;;;;;;1.63;1.52;;;;;;;;;;4116692;28;20030;-65
2023/09/20 02:47:47;;;;;;;1.80;1.30;;;;;;;;;;4131116;28;20070;-65
2023/09/20 02:49:48;;;;;;;2.90;1.20;;;;;;;;;;4132739;28;20096;-65
2023/09/20 02:51:52;;;;;;;6.13;1.73;;;;;;;;;;4132700;28;20129;-65
2023/09/20 02:53:54;;;;;;;1.75;1.65;;;;;;;;;;4131268;28;20038;-65
2023/09/20 02:55:56;;;;;;;4.00;1.30;;;;;;;;;;4127200;28;20042;-65
2023/09/20 02:57:58;;;;;;;2.95;1.20;;;;;;;;;;4116549;28;20042;-65
2023/09/20 02:59:59;;;;;;;3.58;1.55;;;;;;;;;;4116421;28;20579;-65
2023/09/20 03:02:03;;;;;;;1.20;1.20;;;;;;;;;;4116723;28;20074;-65
2023/09/20 03:04:05;;;;;;;2.75;1.55;;;;;;;;;;4116079;28;20057;-65
2023/09/20 03:06:09;;;;;;;2.13;1.27;;;;;;;;;;4116433;28;20043;-64
2023/09/20 03:08:13;;;;;;;1.60;1.50;;;;;;;;;;4116146;28;20081;-65
2023/09/20 03:10:19;;;;;;;1.42;1.42;;;;;;;;;;4126008;28;20081;-65
2023/09/20 03:12:20;;;;;;;1.30;1.30;;;;;;;;;;4116858;28;20046;-65
2023/09/20 03:14:23;;;;;;;1.67;1.57;;;;;;;;;;4116752;28;20035;-65
2023/09/20 03:16:25;;;;;;;3.00;1.55;;;;;;;;;;4115454;28;20498;-65
2023/09/20 03:18:26;;;;;;;1.85;1.77;;;;;;;;;;4116313;28;20698;-65
2023/09/20 03:20:32;;;;;;;8.33;1.73;;;;;;;;;;4116139;28;20418;-65
2023/09/20 03:22:36;;;;;;;2.05;1.50;;;;;;;;;;4130842;28;20054;-65
2023/09/20 03:24:40;;;;;;;1.42;1.40;;;;;;;;;;4116120;28;20043;-65
2023/09/20 03:26:42;;;;;;;1.30;1.27;;;;;;;;;;4116125;28;20082;-65
2023/09/20 03:28:46;;;;;;;;;;;;;;;;;;4124087;28;20093;-65
2023/09/20 03:30:48;;;;;;;3.75;2.20;;;;;;;;;;4132158;28;19922;-65
2023/09/20 03:32:50;;;;;;;1.77;1.77;;;;;;;;;;4132042;28;20047;-65
2023/09/20 03:34:54;;;;;;;2.70;1.55;;;;;;;;;;4132105;28;20470;-65
2023/09/20 03:36:57;;;;;;;1.75;1.30;;;;;;;;;;4132029;28;20104;-65
2023/09/20 03:38:59;;;;;;;3.50;1.88;;;;;;;;;;4132005;28;20073;-65
2023/09/20 03:41:01;;;;;;;1.35;1.20;;;;;;;;;;4132174;28;20418;-65
2023/09/20 03:43:07;;;;;;;1.88;1.77;;;;;;;;;;4132099;28;20052;-65
2023/09/20 03:45:10;;;;;;;2.38;1.10;;;;;;;;;;4131964;28;20126;-65
2023/09/20 03:47:12;;;;;;;1.98;1.30;;;;;;;;;;4131758;28;20137;-65
2023/09/20 03:49:15;;;;;;;3.30;1.40;;;;;;;;;;4131911;28;20054;-65
2023/09/20 03:51:16;;;;;;;1.85;1.58;;;;;;;;;;4131953;28;20042;-64
2023/09/20 03:53:18;;;;;;;2.33;1.13;;;;;;;;;;4131890;28;20146;-65
2023/09/20 03:55:20;;;;;;;1.38;1.20;;;;;;;;;;4131751;28;20458;-65
2023/09/20 03:57:24;;;;;;;1.30;1.30;;;;;;;;;;4131878;28;20046;-65
2023/09/20 03:59:26;;;;;;;1.48;1.38;;;;;;;;;;4121797;28;20093;-65
2023/09/20 04:01:28;;;;;;;3.08;1.20;;;;;;;;;;4129784;28;20135;-65
2023/09/20 04:03:30;;;;;;;1.50;1.40;;;;;;;;;;4131396;28;20045;-64
2023/09/20 04:05:33;;;;;;;1.88;1.10;;;;;;;;;;4131751;28;20049;-65
2023/09/20 04:07:47;;;;;;;1.55;1.40;;;;;;;;;;4131685;28;20042;-65
2023/09/20 04:09:48;;;;;;;4.10;1.55;;;;;;;;;;4123221;28;20042;-65
2023/09/20 04:11:51;;;;;;;4.23;1.40;;;;;;;;;;4123532;28;20506;-65
2023/09/20 04:13:53;;;;;;;;;;;;;;;;;;4117840;28;20282;-65
2023/09/20 04:15:54;;;;;;;2.22;1.60;;;;;;;;;;4127715;28;19968;-65
2023/09/20 04:17:57;;;;;;;2.47;1.30;;;;;;;;;;4130528;28;20042;-65
2023/09/20 04:20:04;;;;;;;3.72;1.45;;;;;;;;;;4120438;28;20084;-65
2023/09/20 04:22:06;;;;;;;1.90;1.10;;;;;;;;;;4118237;28;20042;-65
2023/09/20 04:24:08;;;;;;;3.28;2.25;;;;;;;;;;4115565;28;20043;-65
2023/09/20 04:26:09;;;;;;;1.48;1.48;;;;;;;;;;4115366;28;20051;-65
2023/09/20 04:28:11;;;;;;;1.47;1.47;;;;;;;;;;4118189;28;20049;-65
2023/09/20 04:30:14;;;;;;;2.05;1.52;;;;;;;;;;4131296;28;20517;-65
2023/09/20 04:32:16;;;;;;;2.55;2.35;;;;;;;;;;4131576;28;20070;-65
2023/09/20 04:34:18;;;;;;;;;;;;;;;;;;4130613;28;20145;-65
2023/09/20 04:36:20;;;;;;;1.80;1.80;;;;;;;;;;4131481;28;19925;-65
2023/09/20 04:38:22;;;;;;;1.67;1.40;;;;;;;;;;4131571;28;20050;-65
2023/09/20 04:40:24;;;;;;;2.30;1.63;;;;;;;;;;4130938;28;20297;-65
2023/09/20 04:42:27;;;;;;;2.85;1.20;;;;;;;;;;4131557;28;20042;-65
2023/09/20 04:44:29;;;;;;;1.77;1.60;;;;;;;;;;4138627;28;20392;-65
2023/09/20 04:46:35;;;;;;;2.45;1.13;;;;;;;;;;4130921;28;20237;-65
2023/09/20 04:48:39;;;;;;;3.25;1.52;;;;;;;;;;4131202;28;20113;-65
2023/09/20 04:50:41;;;;;;;4.47;1.25;;;;;;;;;;4131314;28;20498;-65
2023/09/20 04:52:45;;;;;;;1.70;1.60;;;;;;;;;;4131343;28;20066;-65
2023/09/20 04:54:47;;;;;;;1.48;1.42;;;;;;;;;;4131450;28;20281;-65
2023/09/20 04:56:51;;;;;;;2.17;1.40;;;;;;;;;;4131234;28;20569;-65
2023/09/20 04:58:53;;;;;;;3.30;1.70;;;;;;;;;;4129725;28;20521;-65
2023/09/20 05:00:55;;;;;;;2.20;2.00;;;;;;;;;;4130815;28;20046;-65
2023/09/20 05:02:57;;;;;;;2.20;1.53;;;;;;;;;;4130853;28;20038;-65
2023/09/20 05:04:59;;;;;;;2.67;1.70;;;;;;;;;;4130828;28;20376;-65
2023/09/20 05:07:05;;;;;;;1.77;1.67;;;;;;;;;;4114928;28;20054;-65
2023/09/20 05:09:07;;;;;;;7.88;2.05;;;;;;;;;;4123806;28;20038;-65
2023/09/20 05:11:10;;;;;;;1.40;1.30;;;;;;;;;;4123987;28;20043;-65
2023/09/20 05:13:12;;;;;;;2.22;2.13;;;;;;;;;;4114968;28;20035;-65
2023/09/20 05:15:15;;;;;;;1.63;1.57;;;;;;;;;;4127964;28;20120;-65
2023/09/20 05:17:17;;;;;;;3.63;1.73;;;;;;;;;;4128767;28;20292;-70
2023/09/20 05:19:18;;;;;;;1.52;1.13;;;;;;;;;;4119422;28;20053;-63
2023/09/20 05:21:20;;;;;;;2.60;1.35;;;;;;;;;;4114804;28;20554;-63
2023/09/20 05:23:22;;;;;;;1.60;1.10;;;;;;;;;;4115284;28;20046;-64
2023/09/20 05:25:23;;;;;;;1.75;1.65;;;;;;;;;;4124968;28;20042;-64
2023/09/20 05:27:25;;;;;;;4.57;1.87;;;;;;;;;;4130916;28;20042;-63
2023/09/20 05:29:26;;;;;;;2.13;1.50;;;;;;;;;;4130651;28;20117;-63
2023/09/20 05:31:28;;;;;;;2.22;2.13;;;;;;;;;;4130900;28;20038;-63
2023/09/20 05:33:30;;;;;;;3.10;1.92;;;;;;;;;;4130852;28;20046;-64
2023/09/20 05:35:32;;;;;;;2.25;1.60;;;;;;;;;;4130668;28;20054;-64
2023/09/20 05:37:35;;;;;;;1.57;1.57;;;;;;;;;;4127289;28;20042;-63
2023/09/20 05:39:36;;;;;;;4.80;2.22;;;;;;;;;;4114857;28;20050;-63
2023/09/20 05:41:39;;;;;;;4.17;2.37;;;;;;;;;;4117574;28;20073;-64
2023/09/20 05:43:42;;;;;;;2.30;1.77;;;;;;;;;;4117430;28;20097;-64
2023/09/20 05:45:44;;;;;;;2.05;1.52;;;;;;;;;;4117412;28;20043;-63
2023/09/20 05:47:46;;;;;;;3.60;1.55;;;;;;;;;;4131647;28;20038;-63
2023/09/20 05:49:47;;;;;;;6.40;2.10;;;;;;;;;;4133646;28;20129;-64
2023/09/20 05:51:50;;;;;;;3.30;1.58;;;;;;;;;;4133652;28;20045;-64
2023/09/20 05:53:52;;;;;;;2.13;2.03;;;;;;;;;;4133675;28;20045;-64
2023/09/20 05:55:54;;;;;;;5.40;1.47;;;;;;;;;;4133653;28;20459;-63
2023/09/20 05:57:55;;;;;;;3.35;1.58;;;;;;;;;;4133449;28;20285;-64
2023/09/20 05:59:57;;;;;;;1.90;1.35;;;;;;;;;;4133584;28;20042;-63
2023/09/20 06:02:00;;;;;;;1.95;1.15;;;;;;;;;;4127480;28;20043;-64
2023/09/20 06:04:03;;;;;;;1.30;1.30;;;;;;;;;;4117075;28;20305;-63
2023/09/20 06:06:07;;;;;;;1.50;1.50;;;;;;;;;;4117317;28;20058;-64
2023/09/20 06:08:11;;;;;;;3.95;1.95;;;;;;;;;;4117276;28;20055;-64
2023/09/20 06:10:16;;;;;;;2.28;1.30;;;;;;;;;;4117452;28;20049;-63
2023/09/20 06:12:17;;;;;;;1.10;1.10;;;;;;;;;;4117341;28;20407;-64
2023/09/20 06:14:19;;;;;;;2.23;1.27;;;;;;;;;;4117157;28;20498;-63
2023/09/20 06:16:22;;;;;;;1.67;1.58;;;;;;;;;;4116411;28;20066;-64
2023/09/20 06:18:25;;;;;;;1.30;1.10;;;;;;;;;;4117343;28;20043;-63
2023/09/20 06:20:27;;;;;;;1.85;1.00;;;;;;;;;;4117022;28;20495;-64
2023/09/20 06:22:29;;;;;;;1.73;1.50;;;;;;;;;;4132730;28;20057;-64
2023/09/20 06:24:31;;;;;;;1.50;1.40;;;;;;;;;;4133052;28;20109;-64
2023/09/20 06:26:32;;;;;;;1.30;1.10;;;;;;;;;;4133008;28;20070;-65
2023/09/20 06:28:35;;;;;;;2.20;1.20;;;;;;;;;;4133093;28;20455;-63
2023/09/20 06:30:36;;;;;;;1.65;1.63;;;;;;;;;;4133021;28;20458;-63
2023/09/20 06:32:38;;;;;;;1.83;1.67;;;;;;;;;;4133191;28;20050;-64
2023/09/20 06:34:40;;;;;;;2.35;1.30;;;;;;;;;;4132962;28;20053;-63
2023/09/20 06:36:59;;;;;;;1.33;1.20;;;;;;;;;;4132880;28;20441;-63
2023/09/20 06:39:01;;;;;;;1.50;1.15;;;;;;;;;;4133039;28;20042;-63
2023/09/20 06:41:04;;;;;;;1.90;1.13;;;;;;;;;;4133095;28;20133;-63
2023/09/20 06:43:07;;;;;;;3.00;1.20;;;;;;;;;;4132901;28;20068;-63
2023/09/20 06:45:12;;;;;;;1.48;1.40;;;;;;;;;;4132800;28;20076;-64
2023/09/20 06:47:14;;;;;;;1.65;1.10;;;;;;;;;;4132564;28;20046;-63
2023/09/20 06:49:16;;;;;;;2.95;1.80;;;;;;;;;;4132790;28;20034;-63
2023/09/20 06:51:17;;;;;;;7.00;1.60;;;;;;;;;;4132624;28;20391;-63
2023/09/20 06:53:19;;;;;;;2.73;1.30;;;;;;;;;;4132749;28;20074;-63
2023/09/20 06:55:20;;;;;;;2.17;1.50;;;;;;;;;;4132815;28;20046;-63
2023/09/20 06:57:22;;;;;;;4.00;1.75;;;;;;;;;;4132572;28;20100;-63
2023/09/20 06:59:26;;;;;;;4.65;1.90;;;;;;;;;;4117311;28;20093;-64
2023/09/20 07:01:29;;;;;;;3.25;1.65;;;;;;;;;;4116496;28;20162;-63
2023/09/20 07:03:32;;;;;;;2.15;1.77;;;;;;;;;;4116204;28;20047;-65
2023/09/20 07:05:34;;;;;;;2.67;1.58;;;;;;;;;;4116355;28;20498;-63
2023/09/20 07:07:36;;;;;;;2.05;1.40;;;;;;;;;;4116392;28;20392;-64
2023/09/20 07:09:37;;;;;;;5.80;1.52;;;;;;;;;;4116296;28;20038;-64
2023/09/20 07:11:39;;;;;;;6.22;1.25;;;;;;;;;;4116380;28;20499;-63
2023/09/20 07:13:41;;;;;;;3.22;1.10;;;;;;;;;;4116328;28;20043;-65
2023/09/20 07:15:42;;;;;;;1.65;1.10;;;;;;;;;;4116320;28;20081;-63
2023/09/20 07:17:44;;;;;;;3.40;1.75;;;;;;;;;;4123977;28;20046;-64
2023/09/20 07:19:47;;;;;;;1.65;1.10;;;;;;;;;;4132318;28;20042;-63
2023/09/20 07:21:50;;;;;;;;;;;;;;;;;;4132799;28;20042;-64
2023/09/20 07:23:52;;;;;;;1.85;1.75;;;;;;;;;;4132318;28;19921;-63
2023/09/20 07:25:55;;;;;;;1.45;1.20;;;;;;;;;;4132063;28;20826;-64
2023/09/20 07:27:59;;;;;;;2.90;1.50;;;;;;;;;;4132197;28;20541;-65
2023/09/20 07:30:05;;;;;;;2.45;1.40;;;;;;;;;;4132143;28;20085;-63
2023/09/20 07:32:08;;;;;;;1.42;1.27;;;;;;;;;;4132413;28;20061;-63
2023/09/20 07:34:13;;;;;;;1.52;1.42;;;;;;;;;;4132039;28;20050;-64
2023/09/20 07:36:15;;;;;;;4.22;1.20;;;;;;;;;;4132053;28;20042;-63
2023/09/20 07:38:28;;;;;;;;;;;;;;;;;;4132481;28;20046;-63
2023/09/20 07:40:31;;;;;;;2.75;1.48;;;;;;;;;;4131862;28;19968;-65
2023/09/20 07:42:33;;;;;;;3.80;1.13;;;;;;;;;;4131932;28;20054;-64
2023/09/20 07:44:35;;;;;;;3.90;1.42;;;;;;;;;;4131871;28;20050;-64
2023/09/20 07:46:39;;;;;;;6.97;2.15;;;;;;;;;;4130637;28;20045;-64
2023/09/20 07:48:47;;;;;;;1.63;1.52;;;;;;;;;;4132077;28;20050;-63
2023/09/20 07:50:51;;;;;;;3.92;1.38;;;;;;;;;;4131840;28;20121;-64
2023/09/20 07:52:52;;;;;;;6.13;1.70;;;;;;;;;;4131949;28;20081;-63
2023/09/20 07:54:54;;;;;;;3.13;1.33;;;;;;;;;;4122746;28;20041;-64
2023/09/20 07:56:55;;;;;;;6.57;1.38;;;;;;;;;;4115999;28;20105;-63
2023/09/20 07:58:57;;;;;;;3.17;1.20;;;;;;;;;;4115714;28;20053;-63
2023/09/20 08:01:02;;;;;;;3.53;2.03;;;;;;;;;;4114424;28;20585;-63
2023/09/20 08:03:05;;;;;;;4.55;1.20;;;;;;;;;;4115161;28;20176;-63
2023/09/20 08:05:06;;;;;;;;;;;;;;;;;;4115889;28;20447;-63
2023/09/20 08:07:08;;;;;;;2.42;1.00;;;;;;;;;;4115540;28;20338;-64
2023/09/20 08:09:11;;;;;;;1.58;1.48;;;;;;;;;;4115698;28;20051;-63
2023/09/20 08:11:12;;;;;;;2.13;1.35;;;;;;;;;;4115602;28;20046;-63
2023/09/20 08:13:16;;;;;;;1.42;1.08;;;;;;;;;;4117103;28;20043;-63
2023/09/20 08:15:20;;;;;;;2.03;1.10;;;;;;;;;;4131375;28;20077;-63
2023/09/20 08:19:44;;;;;;;;;;;;;;;;;;4131995;28;20126;-63
2023/09/20 08:21:45;;;;;;;2.22;1.35;;;;;;;;;;4131447;28;19957;-63
2023/09/20 09:01:21;;;;;;;1.13;0.88;;;;;;;;;;4115144;28;20074;-64
2023/09/20 09:03:23;;;;;;;1.50;0.90;;;;;;;;;;4115037;28;20039;-64
2023/09/20 09:05:27;;;;;;;1.25;1.15;;;;;;;;;;4115105;28;20051;-63
2023/09/20 09:07:29;;;;;;;1.10;1.10;;;;;;;;;;4115108;28;20478;-64
2023/09/20 09:09:31;;;;;;;1.65;0.90;;;;;;;;;;4116940;28;20046;-63
2023/09/20 09:11:33;;;;;;;1.40;1.27;;;;;;;;;;4131295;28;20121;-63
2023/09/20 09:13:35;;;;;;;3.33;0.80;;;;;;;;;;4131117;28;20054;-64
2023/09/20 09:15:36;;;;;;;2.80;0.80;;;;;;;;;;4133055;28;20046;-64
2023/09/20 09:17:43;;;;;;;0.80;0.80;;;;;;;;;;4134239;28;20701;-63
2023/09/20 09:19:45;;;;;;;0.80;0.80;;;;;;;;;;4134121;28;20046;-63
2023/09/20 09:21:47;;;;;;;2.08;0.90;;;;;;;;;;4134238;28;20038;-63
2023/09/20 09:23:49;;;;;;;0.90;0.90;;;;;;;;;;4134151;28;20521;-63
2023/09/20 09:25:51;;;;;;;7.03;1.25;;;;;;;;;;4134069;28;20092;-63
2023/09/20 09:27:53;;;;;;;1.15;0.80;;;;;;;;;;4134182;28;20076;-63
2023/09/20 09:29:54;;;;;;;1.08;0.93;;;;;;;;;;4134042;28;20070;-63
2023/09/20 09:31:56;;;;;;;2.30;0.80;;;;;;;;;;4134068;28;20042;-64
2023/09/20 09:34:01;;;;;;;0.80;0.80;;;;;;;;;;4133889;28;20096;-65
2023/09/20 09:36:04;;;;;;;0.90;0.90;;;;;;;;;;4133989;28;20039;-64
2023/09/20 09:38:05;;;;;;;;;;;;;;;;;;4134122;28;20038;-64
2023/09/20 09:40:09;;;;;;;0.80;0.80;;;;;;;;;;4133670;28;19922;-64
2023/09/20 09:42:24;;;;;;;2.33;0.80;;;;;;;;;;4134043;28;20046;-64
2023/09/20 09:45:02;;;;;;;3.03;1.00;;;;;;;;;;4117803;28;20069;-64
2023/09/20 09:47:04;;;;;;;0.75;0.70;;;;;;;;;;4119868;28;20066;-64
2023/09/20 09:49:11;;;;;;;4.90;0.82;;;;;;;;;;4117208;28;20488;-63
2023/09/20 09:51:14;;;;;;;0.93;0.70;;;;;;;;;;4121279;28;20521;-64
2023/09/20 09:53:15;;;;;;;;;;;;;;;;;;4129102;28;20089;-64
2023/09/20 09:55:17;;;;;;;2.50;0.60;;;;;;;;;;4126285;28;20083;-63
2023/09/20 09:57:19;;;;;;;1.63;0.70;;;;;;;;;;4116442;28;20054;-64
2023/09/20 09:59:21;;;;;;;0.70;0.70;;;;;;;;;;4119062;28;20042;-63
2023/09/20 10:01:22;;;;;;;0.80;0.80;;;;;;;;;;4117290;28;20053;-64
2023/09/20 10:03:34;;;;;;;2.28;0.73;;;;;;;;;;4119683;28;20043;-65
2023/09/20 10:05:38;;;;;;;2.35;0.70;;;;;;;;;;4114674;28;20101;-63
2023/09/20 10:07:40;;;;;;;1.40;0.73;;;;;;;;;;4114770;28;20043;-64
2023/09/20 10:09:48;;;;;;;2.97;0.80;;;;;;;;;;4132189;28;20034;-63
2023/09/20 10:11:50;;;;;;;1.70;1.17;;;;;;;;;;4133474;28;20045;-63
2023/09/20 10:13:52;;;;;;;1.63;0.70;;;;;;;;;;4130236;28;20038;-66
2023/09/20 10:15:54;;;;;;;;;;;;;;;;;;4116445;28;20042;-63
2023/09/20 10:17:55;;;;;;;1.42;0.80;;;;;;;;;;4131503;28;19934;-64
2023/09/20 10:19:57;;;;;;;3.08;0.90;;;;;;;;;;4117189;28;20554;-63
2023/09/20 10:22:09;;;;;;;3.08;1.60;;;;;;;;;;4130884;28;20077;-65
2023/09/20 10:24:25;;;;;;;4.47;0.70;;;;;;;;;;4117455;28;20066;-64
2023/09/20 10:26:28;;;;;;;1.83;0.70;;;;;;;;;;4116477;28;20039;-63
2023/09/20 10:28:39;;;;;;;0.95;0.70;;;;;;;;;;4125197;28;20030;-64
2023/09/20 10:31:02;;;;;;;0.70;0.70;;;;;;;;;;4120749;28;20046;-65
2023/09/20 10:33:04;;;;;;;2.28;0.70;;;;;;;;;;4119753;28;20046;-64
2023/09/20 10:35:30;;;;;;;1.10;0.60;;;;;;;;;;4123886;28;20038;-63
2023/09/20 10:37:32;;;;;;;1.20;0.60;;;;;;;;;;4117011;28;20491;-63
2023/09/20 10:39:34;;;;;;;1.35;0.60;;;;;;;;;;4128120;28;20465;-64
2023/09/20 10:41:42;;;;;;;0.90;0.70;;;;;;;;;;4119804;28;20589;-63
2023/09/20 10:43:46;;;;;;;2.08;0.60;;;;;;;;;;4129846;28;20043;-63
2023/09/20 10:45:52;;;;;;;2.97;0.68;;;;;;;;;;4123319;28;20078;-63
2023/09/20 10:47:54;;;;;;;1.63;0.70;;;;;;;;;;4130266;28;20042;-63
2023/09/20 10:49:56;;;;;;;0.88;0.60;;;;;;;;;;4132826;28;20042;-64
2023/09/20 10:51:58;;;;;;;;;;;;;;;;;;4123804;28;20495;-63
2023/09/20 10:54:02;;;;;;;2.05;0.70;;;;;;;;;;4123522;28;19932;-63
2023/09/20 10:56:05;;;;;;;0.93;0.93;;;;;;;;;;4131748;28;20053;-64
2023/09/20 10:58:07;;;;;;;0.80;0.70;;;;;;;;;;4116713;28;20041;-64
2023/09/20 11:00:09;;;;;;;3.33;0.60;;;;;;;;;;4113730;28;20034;-64
2023/09/20 11:02:13;;;;;;;5.13;0.70;;;;;;;;;;4120279;28;20081;-64
2023/09/20 11:04:15;;;;;;;1.48;0.70;;;;;;;;;;4118430;28;20059;-63
2023/09/20 11:06:16;;;;;;;1.58;0.60;;;;;;;;;;4120032;28;20042;-63
2023/09/20 11:08:19;;;;;;;1.35;0.80;;;;;;;;;;4122029;28;20418;-64
2023/09/20 11:10:22;;;;;;;1.48;0.60;;;;;;;;;;4128911;28;20049;-64
2023/09/20 11:12:24;;;;;;;0.60;0.60;;;;;;;;;;4117562;28;20066;-63
2023/09/20 11:14:26;;;;;;;0.88;0.70;;;;;;;;;;4131484;28;20038;-65
2023/09/20 11:16:28;;;;;;;1.27;0.70;;;;;;;;;;4122619;28;20132;-63
2023/09/20 11:18:33;;;;;;;2.60;0.80;;;;;;;;;;4127021;28;20046;-63
2023/09/20 11:20:35;;;;;;;1.17;0.70;;;;;;;;;;4129463;28;20477;-64
2023/09/20 11:22:37;;;;;;;1.25;0.70;;;;;;;;;;4132290;28;20053;-64
2023/09/20 11:24:41;;;;;;;1.30;0.70;;;;;;;;;;4122451;28;20043;-64
2023/09/20 11:26:47;;;;;;;2.28;0.70;;;;;;;;;;4120563;28;20043;-63
2023/09/20 11:28:49;;;;;;;2.05;0.70;;;;;;;;;;4126001;28;20450;-63
2023/09/20 11:30:51;;;;;;;1.63;0.70;;;;;;;;;;4132230;28;20046;-63
2023/09/20 11:32:53;;;;;;;0.85;0.70;;;;;;;;;;4125779;28;20050;-63
2023/09/20 11:34:55;;;;;;;;;;;;;;;;;;4122595;28;20395;-64
2023/09/20 11:36:57;;;;;;;1.50;0.70;;;;;;;;;;4124105;28;19922;-63
2023/09/20 11:39:00;;;;;;;2.10;0.60;;;;;;;;;;4118776;28;20092;-64
2023/09/20 11:41:03;;;;;;;1.27;0.70;;;;;;;;;;4123550;28;20053;-66
2023/09/20 11:43:06;;;;;;;4.10;0.70;;;;;;;;;;4132188;28;20061;-66
2023/09/20 11:45:08;;;;;;;1.60;0.70;;;;;;;;;;4131906;28;20052;-66
2023/09/20 11:47:13;;;;;;;1.15;0.80;;;;;;;;;;4131636;28;20073;-66
2023/09/20 11:49:15;;;;;;;0.93;0.77;;;;;;;;;;4132134;28;20046;-66
2023/09/20 11:51:17;;;;;;;1.27;0.70;;;;;;;;;;4131848;28;20065;-65
2023/09/20 11:53:20;;;;;;;1.75;0.70;;;;;;;;;;4131806;28;20042;-66
2023/09/20 11:55:23;;;;;;;0.82;0.70;;;;;;;;;;4132051;28;20049;-66
2023/09/20 11:57:24;;;;;;;;;;;;;;;;;;4132188;28;20502;-66
2023/09/20 11:59:27;;;;;;;4.07;0.70;;;;;;;;;;4131530;28;20434;-66
2023/09/20 12:01:33;;;;;;;1.77;0.77;;;;;;;;;;4130570;28;20551;-66
2023/09/20 12:03:34;;;;;;;0.70;0.70;;;;;;;;;;4131353;28;20133;-67
2023/09/20 12:05:36;;;;;;;6.03;1.83;;;;;;;;;;4131901;28;20050;-67
2023/09/20 12:07:38;;;;;;;0.93;0.77;;;;;;;;;;4131645;28;20043;-67
2023/09/20 12:09:40;;;;;;;0.68;0.68;;;;;;;;;;4131499;28;20510;-66
2023/09/20 12:11:43;;;;;;;0.65;0.60;;;;;;;;;;4131452;28;20046;-66
2023/09/20 12:13:46;;;;;;;2.13;0.70;;;;;;;;;;4131551;28;20533;-66
2023/09/20 12:15:48;;;;;;;0.90;0.70;;;;;;;;;;4122545;28;20474;-66
2023/09/20 12:17:56;;;;;;;1.33;0.82;;;;;;;;;;4115945;28;20090;-66
2023/09/20 12:20:01;;;;;;;0.60;0.60;;;;;;;;;;4115797;28;20046;-66
2023/09/20 12:22:02;;;;;;;4.28;1.33;;;;;;;;;;4114271;28;20047;-66
2023/09/20 12:24:04;;;;;;;2.47;0.70;;;;;;;;;;4115628;28;20053;-66
2023/09/20 12:26:06;;;;;;;0.60;0.60;;;;;;;;;;4131650;28;20077;-66
2023/09/20 12:28:08;;;;;;;0.88;0.60;;;;;;;;;;4131369;28;20069;-68
2023/09/20 12:30:12;;;;;;;0.60;0.60;;;;;;;;;;4131346;28;20069;-69
2023/09/20 12:32:14;;;;;;;0.93;0.68;;;;;;;;;;4131408;28;20046;-69
2023/09/20 12:34:16;;;;;;;0.70;0.70;;;;;;;;;;4131434;28;20048;-68
2023/09/20 12:36:17;;;;;;;3.72;0.70;;;;;;;;;;4121137;28;20073;-69
2023/09/20 12:38:19;;;;;;;2.15;1.13;;;;;;;;;;4119098;28;20406;-68
2023/09/20 12:40:23;;;;;;;2.67;0.80;;;;;;;;;;4131136;28;20046;-69
2023/09/20 12:42:25;;;;;;;1.75;0.60;;;;;;;;;;4131360;28;20121;-69
2023/09/20 12:44:26;;;;;;;0.63;0.63;;;;;;;;;;4128518;28;20046;-69
2023/09/20 12:46:29;;;;;;;1.20;0.95;;;;;;;;;;4118742;28;20549;-69
2023/09/20 12:48:32;;;;;;;2.47;0.70;;;;;;;;;;4119801;28;20522;-69
2023/09/20 12:50:36;;;;;;;0.80;0.70;;;;;;;;;;4121615;28;20125;-70
2023/09/20 12:52:39;;;;;;;1.33;0.60;;;;;;;;;;4118455;28;20093;-70
2023/09/20 12:54:40;;;;;;;2.10;0.70;;;;;;;;;;4123351;28;20053;-69
2023/09/20 12:56:42;;;;;;;1.77;0.75;;;;;;;;;;4122337;28;20054;-69
2023/09/20 12:58:50;;;;;;;1.75;0.70;;;;;;;;;;4134615;28;20046;-68
2023/09/20 13:00:51;;;;;;;2.05;0.70;;;;;;;;;;4134557;28;20038;-69